sensor_id;sensor_type;location;lat;lon;timestamp;P1;durP1;ratioP1;P2;durP2;ratioP2
52300;SDS011;38528;53.214;6.562;2022-09-24T00:01:05;41.30;;;32.17;;
52300;SDS011;38528;53.214;6.562;2022-09-24T00:03:32;43.67;;;32.58;;
52300;SDS011;38528;53.214;6.562;2022-09-24T00:06:00;42.00;;;32.55;;
52300;SDS011;38528;53.214;6.562;2022-09-24T00:08:27;42.58;;;33.20;;
52300;SDS011;38528;53.214;6.562;2022-09-24T00:10:53;46.38;;;33.78;;
52300;SDS011;38528;53.214;6.562;2022-09-24T00:13:21;42.13;;;33.15;;
52300;SDS011;38528;53.214;6.562;2022-09-24T00:15:47;42.50;;;32.08;;
52300;SDS011;38528;53.214;6.562;2022-09-24T00:18:15;50.08;;;35.83;;
52300;SDS011;38528;53.214;6.562;2022-09-24T00:20:42;48.28;;;36.25;;
52300;SDS011;38528;53.214;6.562;2022-09-24T00:23:08;47.83;;;36.65;;
52300;SDS011;38528;53.214;6.562;2022-09-24T00:25:44;47.47;;;37.17;;
52300;SDS011;38528;53.214;6.562;2022-09-24T00:28:30;47.53;;;36.65;;
52300;SDS011;38528;53.214;6.562;2022-09-24T00:30:57;52.20;;;38.42;;
52300;SDS011;38528;53.214;6.562;2022-09-24T00:33:24;53.58;;;38.22;;
52300;SDS011;38528;53.214;6.562;2022-09-24T00:35:52;51.80;;;38.42;;
52300;SDS011;38528;53.214;6.562;2022-09-24T00:38:22;51.67;;;38.88;;
52300;SDS011;38528;53.214;6.562;2022-09-24T00:40:49;51.15;;;39.13;;
52300;SDS011;38528;53.214;6.562;2022-09-24T00:43:22;47.78;;;39.20;;
52300;SDS011;38528;53.214;6.562;2022-09-24T00:45:48;52.70;;;40.60;;
52300;SDS011;38528;53.214;6.562;2022-09-24T00:48:16;51.65;;;39.72;;
52300;SDS011;38528;53.214;6.562;2022-09-24T00:50:43;54.40;;;41.10;;
52300;SDS011;38528;53.214;6.562;2022-09-24T00:53:13;54.45;;;41.58;;
52300;SDS011;38528;53.214;6.562;2022-09-24T00:55:43;54.85;;;41.10;;
52300;SDS011;38528;53.214;6.562;2022-09-24T00:58:14;51.92;;;40.85;;
52300;SDS011;38528;53.214;6.562;2022-09-24T01:00:40;53.55;;;41.65;;
52300;SDS011;38528;53.214;6.562;2022-09-24T01:03:16;57.42;;;42.55;;
52300;SDS011;38528;53.214;6.562;2022-09-24T01:05:45;57.42;;;42.63;;
52300;SDS011;38528;53.214;6.562;2022-09-24T01:08:12;58.80;;;42.92;;
52300;SDS011;38528;53.214;6.562;2022-09-24T01:13:35;67.13;;;45.03;;
52300;SDS011;38528;53.214;6.562;2022-09-24T01:16:21;60.10;;;43.20;;
52300;SDS011;38528;53.214;6.562;2022-09-24T01:21:56;62.75;;;46.15;;
52300;SDS011;38528;53.214;6.562;2022-09-24T01:24:29;59.38;;;44.83;;
52300;SDS011;38528;53.214;6.562;2022-09-24T01:27:06;62.08;;;45.67;;
52300;SDS011;38528;53.214;6.562;2022-09-24T01:30:23;61.25;;;44.53;;
52300;SDS011;38528;53.214;6.562;2022-09-24T01:32:32;63.08;;;46.78;;
52300;SDS011;38528;53.214;6.562;2022-09-24T01:35:24;65.85;;;46.92;;
52300;SDS011;38528;53.214;6.562;2022-09-24T01:37:55;70.07;;;48.92;;
52300;SDS011;38528;53.214;6.562;2022-09-24T01:40:25;64.72;;;47.90;;
52300;SDS011;38528;53.214;6.562;2022-09-24T01:42:53;71.68;;;49.42;;
52300;SDS011;38528;53.214;6.562;2022-09-24T01:45:21;68.35;;;49.38;;
52300;SDS011;38528;53.214;6.562;2022-09-24T01:47:48;65.18;;;50.28;;
52300;SDS011;38528;53.214;6.562;2022-09-24T01:50:16;65.68;;;51.08;;
52300;SDS011;38528;53.214;6.562;2022-09-24T01:53:02;64.53;;;49.92;;
52300;SDS011;38528;53.214;6.562;2022-09-24T01:55:35;68.07;;;51.90;;
52300;SDS011;38528;53.214;6.562;2022-09-24T02:00:35;67.53;;;50.97;;
52300;SDS011;38528;53.214;6.562;2022-09-24T02:03:21;67.88;;;49.15;;
52300;SDS011;38528;53.214;6.562;2022-09-24T02:05:55;69.35;;;49.13;;
52300;SDS011;38528;53.214;6.562;2022-09-24T02:08:38;71.88;;;52.42;;
52300;SDS011;38528;53.214;6.562;2022-09-24T02:16:20;76.28;;;53.83;;
52300;SDS011;38528;53.214;6.562;2022-09-24T02:18:50;77.03;;;53.38;;
52300;SDS011;38528;53.214;6.562;2022-09-24T02:21:19;80.38;;;55.63;;
52300;SDS011;38528;53.214;6.562;2022-09-24T02:23:51;75.03;;;52.47;;
52300;SDS011;38528;53.214;6.562;2022-09-24T02:26:21;68.95;;;51.78;;
52300;SDS011;38528;53.214;6.562;2022-09-24T02:28:47;71.13;;;51.15;;
52300;SDS011;38528;53.214;6.562;2022-09-24T02:31:14;69.50;;;51.25;;
52300;SDS011;38528;53.214;6.562;2022-09-24T02:33:48;73.00;;;52.33;;
52300;SDS011;38528;53.214;6.562;2022-09-24T02:36:34;57.28;;;45.20;;
52300;SDS011;38528;53.214;6.562;2022-09-24T02:39:02;54.67;;;41.95;;
52300;SDS011;38528;53.214;6.562;2022-09-24T02:41:28;42.22;;;34.47;;
52300;SDS011;38528;53.214;6.562;2022-09-24T02:43:55;44.45;;;35.42;;
52300;SDS011;38528;53.214;6.562;2022-09-24T02:46:20;36.70;;;31.48;;
52300;SDS011;38528;53.214;6.562;2022-09-24T02:48:46;43.20;;;35.90;;
52300;SDS011;38528;53.214;6.562;2022-09-24T02:51:12;48.50;;;38.85;;
52300;SDS011;38528;53.214;6.562;2022-09-24T02:53:37;50.95;;;40.70;;
52300;SDS011;38528;53.214;6.562;2022-09-24T02:56:03;50.95;;;40.75;;
52300;SDS011;38528;53.214;6.562;2022-09-24T02:58:29;51.53;;;40.65;;
52300;SDS011;38528;53.214;6.562;2022-09-24T03:00:55;55.03;;;43.78;;
52300;SDS011;38528;53.214;6.562;2022-09-24T03:03:21;63.80;;;45.80;;
52300;SDS011;38528;53.214;6.562;2022-09-24T03:05:51;59.88;;;44.88;;
52300;SDS011;38528;53.214;6.562;2022-09-24T03:08:19;52.97;;;40.65;;
52300;SDS011;38528;53.214;6.562;2022-09-24T03:10:45;42.95;;;35.42;;
52300;SDS011;38528;53.214;6.562;2022-09-24T03:13:11;41.10;;;34.08;;
52300;SDS011;38528;53.214;6.562;2022-09-24T03:15:38;38.88;;;31.83;;
52300;SDS011;38528;53.214;6.562;2022-09-24T03:18:03;43.25;;;34.40;;
52300;SDS011;38528;53.214;6.562;2022-09-24T03:20:29;41.45;;;34.80;;
52300;SDS011;38528;53.214;6.562;2022-09-24T03:22:55;42.00;;;33.78;;
52300;SDS011;38528;53.214;6.562;2022-09-24T03:25:21;45.30;;;35.22;;
52300;SDS011;38528;53.214;6.562;2022-09-24T03:27:46;44.28;;;35.13;;
52300;SDS011;38528;53.214;6.562;2022-09-24T03:30:12;40.15;;;32.65;;
52300;SDS011;38528;53.214;6.562;2022-09-24T03:32:57;39.67;;;32.90;;
52300;SDS011;38528;53.214;6.562;2022-09-24T03:35:23;41.63;;;33.42;;
52300;SDS011;38528;53.214;6.562;2022-09-24T03:37:49;42.60;;;33.80;;
52300;SDS011;38528;53.214;6.562;2022-09-24T03:40:15;41.55;;;33.30;;
52300;SDS011;38528;53.214;6.562;2022-09-24T03:42:41;38.97;;;31.33;;
52300;SDS011;38528;53.214;6.562;2022-09-24T03:45:07;38.72;;;31.50;;
52300;SDS011;38528;53.214;6.562;2022-09-24T03:47:33;40.00;;;31.42;;
52300;SDS011;38528;53.214;6.562;2022-09-24T03:49:58;39.70;;;30.48;;
52300;SDS011;38528;53.214;6.562;2022-09-24T03:52:24;41.58;;;31.50;;
52300;SDS011;38528;53.214;6.562;2022-09-24T03:54:50;41.90;;;31.92;;
52300;SDS011;38528;53.214;6.562;2022-09-24T03:57:16;41.53;;;31.83;;
52300;SDS011;38528;53.214;6.562;2022-09-24T03:59:42;42.20;;;31.90;;
52300;SDS011;38528;53.214;6.562;2022-09-24T04:02:09;38.13;;;31.33;;
52300;SDS011;38528;53.214;6.562;2022-09-24T04:04:35;39.65;;;30.65;;
52300;SDS011;38528;53.214;6.562;2022-09-24T04:07:01;39.25;;;29.35;;
52300;SDS011;38528;53.214;6.562;2022-09-24T04:09:27;40.50;;;29.67;;
52300;SDS011;38528;53.214;6.562;2022-09-24T04:11:53;39.65;;;28.15;;
52300;SDS011;38528;53.214;6.562;2022-09-24T04:14:19;37.50;;;27.23;;
52300;SDS011;38528;53.214;6.562;2022-09-24T04:16:44;37.53;;;25.25;;
52300;SDS011;38528;53.214;6.562;2022-09-24T04:19:11;42.58;;;25.77;;
52300;SDS011;38528;53.214;6.562;2022-09-24T04:21:40;37.05;;;24.67;;
52300;SDS011;38528;53.214;6.562;2022-09-24T04:24:06;37.75;;;22.77;;
52300;SDS011;38528;53.214;6.562;2022-09-24T04:26:32;32.22;;;20.38;;
52300;SDS011;38528;53.214;6.562;2022-09-24T04:28:58;30.38;;;19.40;;
52300;SDS011;38528;53.214;6.562;2022-09-24T04:31:24;25.80;;;16.65;;
52300;SDS011;38528;53.214;6.562;2022-09-24T04:33:53;26.48;;;13.63;;
52300;SDS011;38528;53.214;6.562;2022-09-24T04:36:19;20.60;;;9.45;;
52300;SDS011;38528;53.214;6.562;2022-09-24T04:38:44;19.38;;;8.10;;
52300;SDS011;38528;53.214;6.562;2022-09-24T04:41:10;15.02;;;7.15;;
52300;SDS011;38528;53.214;6.562;2022-09-24T04:43:36;17.42;;;5.75;;
52300;SDS011;38528;53.214;6.562;2022-09-24T04:46:03;20.23;;;4.15;;
52300;SDS011;38528;53.214;6.562;2022-09-24T04:48:29;15.38;;;3.35;;
52300;SDS011;38528;53.214;6.562;2022-09-24T04:50:55;10.57;;;2.85;;
52300;SDS011;38528;53.214;6.562;2022-09-24T04:53:21;18.67;;;3.70;;
52300;SDS011;38528;53.214;6.562;2022-09-24T04:55:47;12.05;;;2.70;;
52300;SDS011;38528;53.214;6.562;2022-09-24T04:58:13;13.27;;;3.03;;
52300;SDS011;38528;53.214;6.562;2022-09-24T05:00:39;15.70;;;2.92;;
52300;SDS011;38528;53.214;6.562;2022-09-24T05:03:06;15.63;;;2.90;;
52300;SDS011;38528;53.214;6.562;2022-09-24T05:05:32;13.98;;;2.90;;
52300;SDS011;38528;53.214;6.562;2022-09-24T05:07:58;15.38;;;2.72;;
52300;SDS011;38528;53.214;6.562;2022-09-24T05:10:25;12.60;;;2.58;;
52300;SDS011;38528;53.214;6.562;2022-09-24T05:12:52;12.90;;;2.65;;
52300;SDS011;38528;53.214;6.562;2022-09-24T05:15:18;14.70;;;2.50;;
52300;SDS011;38528;53.214;6.562;2022-09-24T05:17:44;12.77;;;2.50;;
52300;SDS011;38528;53.214;6.562;2022-09-24T05:20:10;13.38;;;2.50;;
52300;SDS011;38528;53.214;6.562;2022-09-24T05:22:42;15.05;;;2.97;;
52300;SDS011;38528;53.214;6.562;2022-09-24T05:25:13;12.82;;;2.60;;
52300;SDS011;38528;53.214;6.562;2022-09-24T05:27:47;13.95;;;2.45;;
52300;SDS011;38528;53.214;6.562;2022-09-24T05:30:14;9.52;;;2.33;;
52300;SDS011;38528;53.214;6.562;2022-09-24T05:32:41;12.70;;;2.50;;
52300;SDS011;38528;53.214;6.562;2022-09-24T05:35:07;15.65;;;3.25;;
52300;SDS011;38528;53.214;6.562;2022-09-24T05:37:34;15.27;;;2.88;;
52300;SDS011;38528;53.214;6.562;2022-09-24T05:40:01;9.57;;;2.22;;
52300;SDS011;38528;53.214;6.562;2022-09-24T05:42:48;13.10;;;2.40;;
52300;SDS011;38528;53.214;6.562;2022-09-24T05:45:14;14.13;;;2.70;;
52300;SDS011;38528;53.214;6.562;2022-09-24T05:47:42;15.77;;;3.10;;
52300;SDS011;38528;53.214;6.562;2022-09-24T05:50:09;11.77;;;2.67;;
52300;SDS011;38528;53.214;6.562;2022-09-24T05:52:35;11.55;;;2.80;;
52300;SDS011;38528;53.214;6.562;2022-09-24T05:55:02;13.05;;;2.58;;
52300;SDS011;38528;53.214;6.562;2022-09-24T05:57:28;12.43;;;2.60;;
52300;SDS011;38528;53.214;6.562;2022-09-24T05:59:53;13.07;;;3.03;;
52300;SDS011;38528;53.214;6.562;2022-09-24T06:02:19;15.32;;;2.47;;
52300;SDS011;38528;53.214;6.562;2022-09-24T06:04:44;9.95;;;2.35;;
52300;SDS011;38528;53.214;6.562;2022-09-24T06:07:10;11.13;;;2.63;;
52300;SDS011;38528;53.214;6.562;2022-09-24T06:09:35;15.95;;;2.72;;
52300;SDS011;38528;53.214;6.562;2022-09-24T06:12:01;14.35;;;2.80;;
52300;SDS011;38528;53.214;6.562;2022-09-24T06:14:27;11.18;;;2.35;;
52300;SDS011;38528;53.214;6.562;2022-09-24T06:16:52;8.65;;;2.45;;
52300;SDS011;38528;53.214;6.562;2022-09-24T06:19:18;13.75;;;3.08;;
52300;SDS011;38528;53.214;6.562;2022-09-24T06:21:44;12.40;;;2.72;;
52300;SDS011;38528;53.214;6.562;2022-09-24T06:24:09;14.38;;;2.67;;
52300;SDS011;38528;53.214;6.562;2022-09-24T06:26:36;12.50;;;3.00;;
52300;SDS011;38528;53.214;6.562;2022-09-24T06:29:02;16.67;;;2.70;;
52300;SDS011;38528;53.214;6.562;2022-09-24T06:31:27;18.98;;;2.90;;
52300;SDS011;38528;53.214;6.562;2022-09-24T06:33:53;16.83;;;3.33;;
52300;SDS011;38528;53.214;6.562;2022-09-24T06:36:19;12.27;;;2.80;;
52300;SDS011;38528;53.214;6.562;2022-09-24T06:38:48;12.65;;;2.63;;
52300;SDS011;38528;53.214;6.562;2022-09-24T06:41:15;14.02;;;2.60;;
52300;SDS011;38528;53.214;6.562;2022-09-24T06:43:40;14.98;;;3.08;;
52300;SDS011;38528;53.214;6.562;2022-09-24T06:46:06;15.32;;;3.30;;
52300;SDS011;38528;53.214;6.562;2022-09-24T06:48:32;18.88;;;3.05;;
52300;SDS011;38528;53.214;6.562;2022-09-24T06:50:57;15.27;;;3.00;;
52300;SDS011;38528;53.214;6.562;2022-09-24T06:53:23;20.00;;;3.08;;
52300;SDS011;38528;53.214;6.562;2022-09-24T06:55:49;15.00;;;3.08;;
52300;SDS011;38528;53.214;6.562;2022-09-24T06:58:18;14.63;;;3.17;;
52300;SDS011;38528;53.214;6.562;2022-09-24T07:00:51;17.02;;;2.97;;
52300;SDS011;38528;53.214;6.562;2022-09-24T07:03:19;12.82;;;2.88;;
52300;SDS011;38528;53.214;6.562;2022-09-24T07:05:45;13.02;;;2.58;;
52300;SDS011;38528;53.214;6.562;2022-09-24T07:08:12;10.20;;;2.13;;
52300;SDS011;38528;53.214;6.562;2022-09-24T07:10:41;15.45;;;2.90;;
52300;SDS011;38528;53.214;6.562;2022-09-24T07:13:11;16.20;;;3.00;;
52300;SDS011;38528;53.214;6.562;2022-09-24T07:15:37;17.75;;;2.90;;
52300;SDS011;38528;53.214;6.562;2022-09-24T07:18:03;17.00;;;2.92;;
52300;SDS011;38528;53.214;6.562;2022-09-24T07:20:29;12.75;;;2.47;;
52300;SDS011;38528;53.214;6.562;2022-09-24T07:22:55;17.25;;;3.00;;
52300;SDS011;38528;53.214;6.562;2022-09-24T07:25:21;11.60;;;2.30;;
52300;SDS011;38528;53.214;6.562;2022-09-24T07:27:47;11.68;;;2.60;;
52300;SDS011;38528;53.214;6.562;2022-09-24T07:30:13;13.10;;;2.50;;
52300;SDS011;38528;53.214;6.562;2022-09-24T07:32:39;14.10;;;2.50;;
52300;SDS011;38528;53.214;6.562;2022-09-24T07:35:05;12.80;;;2.60;;
52300;SDS011;38528;53.214;6.562;2022-09-24T07:37:31;11.50;;;2.70;;
52300;SDS011;38528;53.214;6.562;2022-09-24T07:39:58;9.75;;;2.47;;
52300;SDS011;38528;53.214;6.562;2022-09-24T07:42:24;13.20;;;2.22;;
52300;SDS011;38528;53.214;6.562;2022-09-24T07:44:50;10.45;;;2.45;;
52300;SDS011;38528;53.214;6.562;2022-09-24T07:47:16;9.77;;;2.03;;
52300;SDS011;38528;53.214;6.562;2022-09-24T07:49:42;10.65;;;2.38;;
52300;SDS011;38528;53.214;6.562;2022-09-24T07:52:08;10.45;;;2.03;;
52300;SDS011;38528;53.214;6.562;2022-09-24T07:54:35;7.70;;;1.70;;
52300;SDS011;38528;53.214;6.562;2022-09-24T07:57:01;5.53;;;1.90;;
52300;SDS011;38528;53.214;6.562;2022-09-24T07:59:27;7.15;;;1.77;;
52300;SDS011;38528;53.214;6.562;2022-09-24T08:01:53;8.93;;;2.00;;
52300;SDS011;38528;53.214;6.562;2022-09-24T08:04:19;11.05;;;1.98;;
52300;SDS011;38528;53.214;6.562;2022-09-24T08:06:44;8.98;;;2.10;;
52300;SDS011;38528;53.214;6.562;2022-09-24T08:09:10;8.85;;;2.03;;
52300;SDS011;38528;53.214;6.562;2022-09-24T08:11:36;11.43;;;2.10;;
52300;SDS011;38528;53.214;6.562;2022-09-24T08:14:03;11.18;;;2.22;;
52300;SDS011;38528;53.214;6.562;2022-09-24T08:16:28;10.45;;;2.58;;
52300;SDS011;38528;53.214;6.562;2022-09-24T08:18:54;10.68;;;2.40;;
52300;SDS011;38528;53.214;6.562;2022-09-24T08:21:20;12.63;;;2.25;;
52300;SDS011;38528;53.214;6.562;2022-09-24T08:23:46;10.50;;;2.33;;
52300;SDS011;38528;53.214;6.562;2022-09-24T08:26:12;9.55;;;2.60;;
52300;SDS011;38528;53.214;6.562;2022-09-24T08:28:38;9.77;;;2.40;;
52300;SDS011;38528;53.214;6.562;2022-09-24T08:31:06;15.55;;;2.67;;
52300;SDS011;38528;53.214;6.562;2022-09-24T08:33:35;12.90;;;2.88;;
52300;SDS011;38528;53.214;6.562;2022-09-24T08:36:02;10.60;;;2.47;;
52300;SDS011;38528;53.214;6.562;2022-09-24T08:38:30;11.43;;;2.03;;
52300;SDS011;38528;53.214;6.562;2022-09-24T08:46:34;12.27;;;2.60;;
52300;SDS011;38528;53.214;6.562;2022-09-24T08:49:22;15.38;;;2.92;;
52300;SDS011;38528;53.214;6.562;2022-09-24T08:52:10;14.25;;;2.75;;
52300;SDS011;38528;53.214;6.562;2022-09-24T08:54:54;12.93;;;2.50;;
52300;SDS011;38528;53.214;6.562;2022-09-24T08:57:26;14.02;;;2.67;;
52300;SDS011;38528;53.214;6.562;2022-09-24T08:59:52;9.70;;;2.13;;
52300;SDS011;38528;53.214;6.562;2022-09-24T09:08:17;10.70;;;2.22;;
52300;SDS011;38528;53.214;6.562;2022-09-24T09:10:55;11.15;;;2.55;;
52300;SDS011;38528;53.214;6.562;2022-09-24T09:13:26;9.57;;;2.10;;
52300;SDS011;38528;53.214;6.562;2022-09-24T09:16:04;9.40;;;1.80;;
52300;SDS011;38528;53.214;6.562;2022-09-24T09:18:51;10.95;;;2.20;;
52300;SDS011;38528;53.214;6.562;2022-09-24T09:23:52;6.53;;;1.85;;
52300;SDS011;38528;53.214;6.562;2022-09-24T09:26:20;12.27;;;2.20;;
52300;SDS011;38528;53.214;6.562;2022-09-24T09:28:46;9.88;;;1.80;;
52300;SDS011;38528;53.214;6.562;2022-09-24T09:34:39;8.63;;;2.08;;
52300;SDS011;38528;53.214;6.562;2022-09-24T09:39:58;10.07;;;1.70;;
52300;SDS011;38528;53.214;6.562;2022-09-24T09:42:40;10.23;;;1.80;;
52300;SDS011;38528;53.214;6.562;2022-09-24T09:45:17;5.28;;;1.92;;
52300;SDS011;38528;53.214;6.562;2022-09-24T09:48:07;4.57;;;1.30;;
52300;SDS011;38528;53.214;6.562;2022-09-24T09:50:43;4.38;;;1.48;;
52300;SDS011;38528;53.214;6.562;2022-09-24T09:53:18;5.68;;;1.95;;
52300;SDS011;38528;53.214;6.562;2022-09-24T09:58:18;7.00;;;1.55;;
52300;SDS011;38528;53.214;6.562;2022-09-24T10:00:48;7.88;;;1.83;;
52300;SDS011;38528;53.214;6.562;2022-09-24T10:03:25;8.15;;;1.75;;
52300;SDS011;38528;53.214;6.562;2022-09-24T10:05:59;5.50;;;1.50;;
52300;SDS011;38528;53.214;6.562;2022-09-24T10:08:28;5.57;;;1.60;;
52300;SDS011;38528;53.214;6.562;2022-09-24T10:10:54;4.90;;;1.55;;
52300;SDS011;38528;53.214;6.562;2022-09-24T10:13:25;5.60;;;1.80;;
52300;SDS011;38528;53.214;6.562;2022-09-24T10:15:55;6.45;;;1.92;;
52300;SDS011;38528;53.214;6.562;2022-09-24T10:18:30;5.05;;;1.50;;
52300;SDS011;38528;53.214;6.562;2022-09-24T10:21:00;4.95;;;1.27;;
52300;SDS011;38528;53.214;6.562;2022-09-24T10:23:35;7.10;;;1.70;;
52300;SDS011;38528;53.214;6.562;2022-09-24T10:26:06;6.95;;;1.90;;
52300;SDS011;38528;53.214;6.562;2022-09-24T10:28:33;6.45;;;1.83;;
52300;SDS011;38528;53.214;6.562;2022-09-24T10:31:38;6.60;;;2.17;;
52300;SDS011;38528;53.214;6.562;2022-09-24T10:34:16;5.43;;;1.80;;
52300;SDS011;38528;53.214;6.562;2022-09-24T10:36:55;8.88;;;1.70;;
52300;SDS011;38528;53.214;6.562;2022-09-24T10:39:26;6.95;;;2.10;;
52300;SDS011;38528;53.214;6.562;2022-09-24T10:41:54;9.95;;;2.10;;
52300;SDS011;38528;53.214;6.562;2022-09-24T10:44:25;8.07;;;1.90;;
52300;SDS011;38528;53.214;6.562;2022-09-24T10:50:02;9.82;;;2.17;;
52300;SDS011;38528;53.214;6.562;2022-09-24T10:55:11;10.70;;;2.03;;
52300;SDS011;38528;53.214;6.562;2022-09-24T11:00:23;10.18;;;2.08;;
52300;SDS011;38528;53.214;6.562;2022-09-24T11:03:15;8.70;;;1.85;;
52300;SDS011;38528;53.214;6.562;2022-09-24T11:17:33;6.80;;;1.85;;
52300;SDS011;38528;53.214;6.562;2022-09-24T11:20:15;9.20;;;1.98;;
52300;SDS011;38528;53.214;6.562;2022-09-24T11:36:49;7.28;;;2.10;;
52300;SDS011;38528;53.214;6.562;2022-09-24T11:41:51;6.60;;;1.60;;
52300;SDS011;38528;53.214;6.562;2022-09-24T11:52:44;7.75;;;1.80;;
52300;SDS011;38528;53.214;6.562;2022-09-24T11:55:24;6.93;;;1.73;;
52300;SDS011;38528;53.214;6.562;2022-09-24T11:58:04;7.95;;;1.90;;
52300;SDS011;38528;53.214;6.562;2022-09-24T12:00:35;8.25;;;1.77;;
52300;SDS011;38528;53.214;6.562;2022-09-24T12:03:23;8.15;;;1.77;;
52300;SDS011;38528;53.214;6.562;2022-09-24T12:06:31;8.32;;;2.03;;
52300;SDS011;38528;53.214;6.562;2022-09-24T12:09:11;6.53;;;1.60;;
52300;SDS011;38528;53.214;6.562;2022-09-24T12:11:44;8.05;;;1.90;;
52300;SDS011;38528;53.214;6.562;2022-09-24T12:14:18;9.63;;;1.70;;
52300;SDS011;38528;53.214;6.562;2022-09-24T12:16:48;9.10;;;2.00;;
52300;SDS011;38528;53.214;6.562;2022-09-24T12:19:21;5.65;;;1.50;;
52300;SDS011;38528;53.214;6.562;2022-09-24T12:21:52;10.98;;;1.80;;
52300;SDS011;38528;53.214;6.562;2022-09-24T12:27:09;6.57;;;1.20;;
52300;SDS011;38528;53.214;6.562;2022-09-24T12:48:52;6.45;;;1.50;;
52300;SDS011;38528;53.214;6.562;2022-09-24T12:51:19;6.18;;;1.80;;
52300;SDS011;38528;53.214;6.562;2022-09-24T12:53:57;5.90;;;1.60;;
52300;SDS011;38528;53.214;6.562;2022-09-24T12:56:28;8.30;;;1.77;;
52300;SDS011;38528;53.214;6.562;2022-09-24T12:58:55;7.78;;;1.60;;
52300;SDS011;38528;53.214;6.562;2022-09-24T13:04:02;6.97;;;1.70;;
52300;SDS011;38528;53.214;6.562;2022-09-24T13:06:41;7.50;;;1.90;;
52300;SDS011;38528;53.214;6.562;2022-09-24T13:09:23;7.22;;;1.90;;
52300;SDS011;38528;53.214;6.562;2022-09-24T13:12:36;6.05;;;1.50;;
52300;SDS011;38528;53.214;6.562;2022-09-24T13:14:38;9.23;;;1.50;;
52300;SDS011;38528;53.214;6.562;2022-09-24T13:17:07;9.05;;;1.42;;
52300;SDS011;38528;53.214;6.562;2022-09-24T13:22:05;5.07;;;1.33;;
52300;SDS011;38528;53.214;6.562;2022-09-24T13:24:50;7.25;;;1.60;;
52300;SDS011;38528;53.214;6.562;2022-09-24T13:27:22;5.68;;;1.95;;
52300;SDS011;38528;53.214;6.562;2022-09-24T13:32:42;6.35;;;1.60;;
52300;SDS011;38528;53.214;6.562;2022-09-24T13:35:25;5.53;;;1.50;;
52300;SDS011;38528;53.214;6.562;2022-09-24T13:37:56;6.20;;;1.80;;
52300;SDS011;38528;53.214;6.562;2022-09-24T13:40:32;7.72;;;2.15;;
52300;SDS011;38528;53.214;6.562;2022-09-24T13:45:42;6.55;;;1.90;;
52300;SDS011;38528;53.214;6.562;2022-09-24T13:48:24;8.95;;;2.30;;
52300;SDS011;38528;53.214;6.562;2022-09-24T13:50:56;7.15;;;1.90;;
52300;SDS011;38528;53.214;6.562;2022-09-24T13:53:26;10.00;;;2.25;;
52300;SDS011;38528;53.214;6.562;2022-09-24T13:55:54;7.07;;;1.95;;
52300;SDS011;38528;53.214;6.562;2022-09-24T13:58:27;8.38;;;1.98;;
52300;SDS011;38528;53.214;6.562;2022-09-24T14:01:02;9.13;;;2.13;;
52300;SDS011;38528;53.214;6.562;2022-09-24T14:03:34;9.00;;;1.73;;
52300;SDS011;38528;53.214;6.562;2022-09-24T14:06:08;9.48;;;2.00;;
52300;SDS011;38528;53.214;6.562;2022-09-24T14:08:36;8.60;;;2.08;;
52300;SDS011;38528;53.214;6.562;2022-09-24T14:11:19;10.35;;;2.25;;
52300;SDS011;38528;53.214;6.562;2022-09-24T14:13:48;12.98;;;2.33;;
52300;SDS011;38528;53.214;6.562;2022-09-24T14:16:16;11.95;;;1.80;;
52300;SDS011;38528;53.214;6.562;2022-09-24T14:18:44;8.57;;;2.03;;
52300;SDS011;38528;53.214;6.562;2022-09-24T14:23:55;6.35;;;1.75;;
52300;SDS011;38528;53.214;6.562;2022-09-24T14:29:07;8.60;;;2.30;;
52300;SDS011;38528;53.214;6.562;2022-09-24T14:31:57;8.38;;;2.05;;
52300;SDS011;38528;53.214;6.562;2022-09-24T14:34:36;7.65;;;1.80;;
52300;SDS011;38528;53.214;6.562;2022-09-24T14:37:24;9.70;;;2.10;;
52300;SDS011;38528;53.214;6.562;2022-09-24T14:42:27;11.25;;;2.10;;
52300;SDS011;38528;53.214;6.562;2022-09-24T14:45:00;10.02;;;2.25;;
52300;SDS011;38528;53.214;6.562;2022-09-24T14:47:33;8.10;;;2.22;;
52300;SDS011;38528;53.214;6.562;2022-09-24T14:50:00;8.20;;;2.05;;
52300;SDS011;38528;53.214;6.562;2022-09-24T14:52:35;9.93;;;2.00;;
52300;SDS011;38528;53.214;6.562;2022-09-24T14:57:42;7.35;;;2.05;;
52300;SDS011;38528;53.214;6.562;2022-09-24T15:00:19;10.77;;;2.53;;
52300;SDS011;38528;53.214;6.562;2022-09-24T15:02:55;8.88;;;2.00;;
52300;SDS011;38528;53.214;6.562;2022-09-24T15:05:25;8.13;;;1.80;;
52300;SDS011;38528;53.214;6.562;2022-09-24T15:10:57;8.23;;;2.20;;
52300;SDS011;38528;53.214;6.562;2022-09-24T15:13:34;7.75;;;1.85;;
52300;SDS011;38528;53.214;6.562;2022-09-24T15:18:46;9.65;;;2.10;;
52300;SDS011;38528;53.214;6.562;2022-09-24T15:21:23;8.90;;;1.90;;
52300;SDS011;38528;53.214;6.562;2022-09-24T15:23:49;8.82;;;1.98;;
52300;SDS011;38528;53.214;6.562;2022-09-24T15:26:15;8.30;;;2.20;;
52300;SDS011;38528;53.214;6.562;2022-09-24T15:28:40;9.68;;;2.38;;
52300;SDS011;38528;53.214;6.562;2022-09-24T15:31:06;8.80;;;2.30;;
52300;SDS011;38528;53.214;6.562;2022-09-24T15:33:32;10.52;;;2.55;;
52300;SDS011;38528;53.214;6.562;2022-09-24T15:35:59;10.98;;;2.63;;
52300;SDS011;38528;53.214;6.562;2022-09-24T15:38:25;11.75;;;2.80;;
52300;SDS011;38528;53.214;6.562;2022-09-24T15:40:50;9.82;;;2.72;;
52300;SDS011;38528;53.214;6.562;2022-09-24T15:45:45;9.27;;;2.70;;
52300;SDS011;38528;53.214;6.562;2022-09-24T15:48:10;9.20;;;2.45;;
52300;SDS011;38528;53.214;6.562;2022-09-24T15:50:37;8.75;;;2.45;;
52300;SDS011;38528;53.214;6.562;2022-09-24T15:53:03;9.07;;;2.30;;
52300;SDS011;38528;53.214;6.562;2022-09-24T15:55:30;9.25;;;2.95;;
52300;SDS011;38528;53.214;6.562;2022-09-24T15:58:00;6.80;;;2.38;;
52300;SDS011;38528;53.214;6.562;2022-09-24T16:00:26;10.48;;;2.40;;
52300;SDS011;38528;53.214;6.562;2022-09-24T16:02:55;9.48;;;2.50;;
52300;SDS011;38528;53.214;6.562;2022-09-24T16:05:21;9.85;;;2.33;;
52300;SDS011;38528;53.214;6.562;2022-09-24T16:07:47;11.45;;;3.13;;
52300;SDS011;38528;53.214;6.562;2022-09-24T16:10:14;10.93;;;2.60;;
52300;SDS011;38528;53.214;6.562;2022-09-24T16:12:40;9.73;;;2.58;;
52300;SDS011;38528;53.214;6.562;2022-09-24T16:15:07;8.38;;;2.47;;
52300;SDS011;38528;53.214;6.562;2022-09-24T16:17:36;11.27;;;2.40;;
52300;SDS011;38528;53.214;6.562;2022-09-24T16:20:02;12.27;;;2.67;;
52300;SDS011;38528;53.214;6.562;2022-09-24T16:22:28;11.02;;;2.75;;
52300;SDS011;38528;53.214;6.562;2022-09-24T16:24:55;13.02;;;3.00;;
52300;SDS011;38528;53.214;6.562;2022-09-24T16:27:21;14.82;;;2.95;;
52300;SDS011;38528;53.214;6.562;2022-09-24T16:29:46;8.07;;;2.25;;
52300;SDS011;38528;53.214;6.562;2022-09-24T16:32:12;12.65;;;2.67;;
52300;SDS011;38528;53.214;6.562;2022-09-24T16:34:38;7.85;;;1.88;;
52300;SDS011;38528;53.214;6.562;2022-09-24T16:37:05;7.45;;;2.40;;
52300;SDS011;38528;53.214;6.562;2022-09-24T16:39:32;6.07;;;1.80;;
52300;SDS011;38528;53.214;6.562;2022-09-24T16:41:58;6.70;;;2.20;;
52300;SDS011;38528;53.214;6.562;2022-09-24T16:44:24;7.80;;;1.92;;
52300;SDS011;38528;53.214;6.562;2022-09-24T16:46:49;8.07;;;2.60;;
52300;SDS011;38528;53.214;6.562;2022-09-24T16:49:15;11.50;;;2.08;;
52300;SDS011;38528;53.214;6.562;2022-09-24T16:51:41;10.48;;;2.10;;
52300;SDS011;38528;53.214;6.562;2022-09-24T16:54:07;8.40;;;2.10;;
52300;SDS011;38528;53.214;6.562;2022-09-24T16:56:32;8.05;;;2.05;;
52300;SDS011;38528;53.214;6.562;2022-09-24T16:58:58;9.23;;;2.20;;
52300;SDS011;38528;53.214;6.562;2022-09-24T17:01:24;8.23;;;1.90;;
52300;SDS011;38528;53.214;6.562;2022-09-24T17:03:50;8.32;;;2.50;;